createdAt,value
2023-04-12T00:01:01.136Z,20.10
2023-04-12T00:06:10.485Z,19.60
2023-04-12T00:11:14.049Z,20.00
2023-04-12T00:16:20.178Z,18.40
2023-04-12T00:21:24.010Z,20.80
2023-04-12T00:26:47.819Z,21.90
2023-04-12T00:31:51.508Z,18.80
2023-04-12T00:36:57.600Z,15.20
2023-04-12T00:42:21.400Z,12.40
2023-04-12T00:47:36.915Z,11.40
2023-04-12T00:52:54.706Z,12.30
2023-04-12T00:58:01.215Z,9.00
2023-04-12T01:03:05.696Z,9.80
2023-04-12T01:09:01.262Z,9.80
2023-04-12T01:14:14.289Z,9.50
2023-04-12T01:19:53.868Z,8.60
2023-04-12T01:26:01.054Z,9.80
2023-04-12T01:31:09.095Z,8.80
2023-04-12T01:36:34.846Z,13.50
2023-04-12T01:41:53.421Z,12.10
2023-04-12T01:47:20.073Z,14.00
2023-04-12T01:53:09.047Z,16.20
2023-04-12T01:59:15.317Z,16.70
2023-04-12T02:04:20.174Z,19.60
2023-04-12T02:09:41.003Z,21.10
2023-04-12T02:15:08.732Z,23.80
2023-04-12T02:20:17.678Z,22.60
2023-04-12T02:25:24.476Z,21.60
2023-04-12T02:30:31.216Z,21.60
2023-04-12T02:35:39.549Z,23.40
2023-04-12T02:40:50.682Z,24.00
2023-04-12T02:45:54.747Z,22.90
2023-04-12T02:51:01.374Z,23.90
2023-04-12T02:56:15.924Z,22.40
2023-04-12T03:01:26.884Z,23.20
2023-04-12T03:07:06.855Z,22.80
2023-04-12T03:17:28.495Z,27.00
2023-04-12T03:22:32.322Z,24.90
2023-04-12T03:27:38.631Z,23.80
2023-04-12T03:32:45.158Z,21.90
2023-04-12T03:37:48.484Z,22.70
2023-04-12T03:42:55.383Z,23.80
2023-04-12T03:47:58.765Z,23.30
2023-04-12T03:53:03.073Z,23.30
2023-04-12T03:58:10.349Z,23.80
2023-04-12T04:03:18.528Z,23.00
2023-04-12T04:08:29.839Z,22.10
2023-04-12T04:13:33.656Z,21.90
2023-04-12T04:18:40.457Z,24.60
2023-04-12T04:23:45.588Z,31.60
2023-04-12T04:28:50.439Z,27.50
2023-04-12T04:33:59.014Z,25.90
2023-04-12T04:39:16.571Z,27.40
2023-04-12T04:44:21.910Z,24.30
2023-04-12T04:49:44.026Z,23.20
2023-04-12T04:55:13.172Z,21.40
2023-04-12T05:00:20.180Z,29.40
2023-04-12T05:05:30.511Z,23.90
2023-04-12T05:10:46.382Z,20.20
2023-04-12T05:15:50.628Z,22.30
2023-04-12T05:20:54.309Z,24.00
2023-04-12T05:25:58.004Z,19.20
2023-04-12T05:31:01.948Z,19.60
2023-04-12T05:36:34.724Z,21.30
2023-04-12T05:41:39.535Z,22.00
2023-04-12T05:46:42.999Z,22.40
2023-04-12T05:51:52.330Z,20.80
2023-04-12T05:57:08.947Z,20.60
2023-04-12T06:02:20.051Z,22.40
2023-04-12T06:07:24.834Z,22.30
2023-04-12T06:12:38.604Z,27.00
2023-04-12T06:18:02.460Z,22.40
2023-04-12T06:23:16.278Z,27.40
2023-04-12T06:28:53.508Z,26.50
2023-04-12T06:34:01.487Z,29.10
2023-04-12T06:39:12.216Z,25.40
2023-04-12T06:44:23.268Z,25.60
2023-04-12T06:49:27.301Z,22.80
2023-04-12T06:54:40.264Z,24.20
2023-04-12T07:00:04.060Z,27.00
2023-04-12T07:05:07.805Z,28.20
2023-04-12T07:10:33.942Z,27.40
2023-04-12T07:15:37.373Z,24.70
2023-04-12T07:20:41.006Z,21.90
2023-04-12T07:26:04.911Z,26.00
2023-04-12T07:31:11.288Z,24.40
2023-04-12T07:36:26.531Z,25.50
2023-04-12T07:41:30.088Z,27.90
2023-04-12T07:46:42.780Z,24.60
2023-04-12T08:02:06.388Z,28.20
2023-04-12T08:07:13.119Z,25.10
2023-04-12T08:12:21.324Z,24.20
2023-04-12T08:17:27.686Z,23.50
2023-04-12T08:22:31.482Z,24.40
2023-04-12T08:27:35.123Z,25.20
2023-04-12T08:32:41.930Z,25.40
2023-04-12T08:37:45.613Z,27.70
2023-04-12T08:42:55.649Z,25.60
2023-04-12T08:48:04.112Z,25.90
2023-04-12T08:53:27.958Z,27.70
2023-04-12T08:58:52.834Z,26.70
2023-04-12T09:03:56.697Z,24.90
2023-04-12T09:09:01.695Z,22.70
2023-04-12T09:14:22.722Z,23.90
2023-04-12T09:19:40.921Z,23.70
2023-04-12T09:24:53.531Z,24.30
2023-04-12T09:36:19.169Z,24.40
2023-04-12T09:41:32.139Z,25.10
2023-04-12T09:46:56.597Z,22.40
2023-04-12T09:52:20.620Z,22.30
2023-04-12T09:57:27.788Z,22.00
2023-04-12T10:02:32.295Z,23.50
2023-04-12T10:07:46.059Z,24.40
2023-04-12T10:12:52.344Z,23.30
2023-04-12T10:17:57.529Z,26.40
2023-04-12T10:23:01.571Z,24.50
2023-04-12T10:28:24.148Z,21.20
2023-04-12T10:33:30.936Z,24.80
2023-04-12T10:38:46.683Z,21.20
2023-04-12T10:43:52.118Z,21.50
2023-04-12T10:48:57.968Z,21.00
2023-04-12T10:54:07.829Z,21.00
2023-04-12T10:59:12.571Z,20.30
2023-04-12T11:04:22.306Z,18.40
2023-04-12T11:09:45.746Z,17.60
2023-04-12T11:15:03.960Z,18.30
2023-04-12T11:20:28.258Z,18.30
2023-04-12T11:25:32.326Z,20.10
2023-04-12T11:30:36.370Z,22.10
2023-04-12T11:35:43.830Z,18.20
2023-04-12T11:40:48.664Z,17.10
2023-04-12T11:46:02.445Z,15.70
2023-04-12T11:51:25.447Z,17.00
2023-04-12T11:56:29.971Z,20.30
2023-04-12T12:01:37.906Z,22.40
2023-04-12T12:06:42.254Z,18.90
2023-04-12T12:12:06.748Z,18.80
2023-04-12T12:17:15.557Z,18.30
2023-04-12T12:22:24.488Z,18.80
2023-04-12T12:27:31.077Z,17.60
2023-04-12T12:32:45.349Z,19.80
2023-04-12T12:37:55.958Z,16.80
2023-04-12T12:43:00.500Z,16.10
2023-04-12T12:48:13.415Z,16.70
2023-04-12T12:53:17.216Z,16.40
2023-04-12T12:58:28.711Z,16.00
2023-04-12T13:03:32.907Z,17.90
2023-04-12T13:08:45.724Z,16.10
2023-04-12T13:13:49.500Z,18.30
2023-04-12T13:18:52.910Z,23.30
2023-04-12T13:24:07.826Z,17.80
2023-04-12T13:29:14.221Z,16.50
2023-04-12T13:34:17.724Z,19.20
2023-04-12T13:39:22.058Z,17.10
2023-04-12T13:44:27.977Z,16.70
2023-04-12T13:49:31.566Z,19.40
2023-04-12T13:54:35.130Z,18.60
2023-04-12T13:59:38.982Z,17.20
2023-04-12T14:04:53.518Z,17.90
2023-04-12T14:09:57.958Z,16.50
2023-04-12T14:15:04.699Z,14.50
2023-04-12T14:20:12.839Z,16.70
2023-04-12T14:25:16.500Z,18.00
2023-04-12T14:30:19.947Z,19.00
2023-04-12T14:35:23.399Z,16.60
2023-04-12T14:40:27.076Z,17.90
2023-04-12T14:45:30.654Z,16.50
2023-04-12T14:50:34.357Z,17.30
2023-04-12T14:55:37.750Z,16.30
2023-04-12T15:00:41.847Z,16.90
2023-04-12T15:05:54.339Z,16.70
2023-04-12T15:10:57.844Z,15.80
2023-04-12T15:16:20.187Z,17.40
2023-04-12T15:21:23.636Z,15.90
2023-04-12T15:26:26.943Z,18.70
2023-04-12T15:31:30.628Z,18.40
2023-04-12T15:36:36.746Z,18.30
2023-04-12T15:41:41.905Z,18.00
2023-04-12T15:46:53.295Z,18.70
2023-04-12T15:52:07.356Z,20.40
2023-04-12T15:57:11.738Z,20.90
2023-04-12T16:02:15.304Z,20.60
2023-04-12T16:07:19.038Z,21.60
2023-04-12T16:12:22.446Z,19.60
2023-04-12T16:17:25.891Z,18.10
2023-04-12T16:22:29.409Z,17.70
2023-04-12T16:27:33.140Z,19.60
2023-04-12T16:32:37.368Z,18.20
2023-04-12T16:37:42.618Z,20.20
2023-04-12T16:42:48.647Z,18.90
2023-04-12T16:47:52.060Z,17.80
2023-04-12T16:52:55.828Z,17.20
2023-04-12T16:57:59.316Z,17.00
2023-04-12T17:03:03.457Z,17.00
2023-04-12T17:08:09.738Z,16.80
2023-04-12T17:13:19.494Z,15.00
2023-04-12T17:18:24.082Z,18.50
2023-04-12T17:23:29.849Z,16.70
2023-04-12T17:28:43.632Z,17.30
2023-04-12T17:33:47.334Z,20.60
2023-04-12T17:38:57.226Z,22.10
2023-04-12T17:44:00.891Z,18.10
2023-04-12T17:49:06.871Z,18.60
2023-04-12T17:54:12.826Z,22.50
2023-04-12T17:59:16.621Z,17.60
2023-04-12T18:04:23.303Z,16.60
2023-04-12T18:10:10.387Z,17.90
2023-04-12T18:15:14.111Z,20.00
2023-04-12T18:20:21.463Z,19.80
2023-04-12T18:25:25.118Z,17.10
2023-04-12T18:30:28.549Z,17.20
2023-04-12T18:35:32.424Z,19.70
2023-04-12T18:40:38.074Z,18.00
2023-04-12T18:45:41.801Z,22.00
2023-04-12T18:50:51.811Z,21.40
2023-04-12T18:55:55.287Z,19.00
2023-04-12T19:00:58.661Z,21.10
2023-04-12T19:06:04.821Z,21.30
2023-04-12T19:11:08.290Z,23.00
2023-04-12T19:16:12.828Z,19.40
2023-04-12T19:21:19.124Z,21.20
2023-04-12T19:26:23.519Z,19.40
2023-04-12T19:31:27.824Z,23.90
2023-04-12T19:36:51.668Z,22.00
2023-04-12T19:41:55.102Z,29.20
2023-04-12T19:47:01.713Z,36.10
2023-04-12T19:52:05.807Z,63.80
2023-04-12T19:57:09.448Z,47.10
2023-04-12T20:02:25.447Z,44.50
2023-04-12T20:07:29.280Z,51.00
2023-04-12T20:12:38.230Z,53.10
2023-04-12T20:17:54.107Z,48.10
2023-04-12T20:23:00.753Z,38.70
2023-04-12T20:28:25.850Z,34.80
2023-04-12T20:33:30.303Z,33.80
2023-04-12T20:38:34.448Z,35.50
2023-04-12T20:43:46.629Z,35.50
2023-04-12T20:49:07.153Z,31.70
2023-04-12T20:54:20.771Z,36.40
2023-04-12T20:59:24.291Z,30.10
2023-04-12T21:04:28.004Z,31.70
2023-04-12T21:09:47.316Z,26.60
2023-04-12T21:14:53.399Z,31.60
2023-04-12T21:19:57.540Z,30.20
2023-04-12T21:25:01.222Z,32.40
2023-04-12T21:30:14.767Z,33.80
2023-04-12T21:41:12.732Z,34.00
2023-04-12T21:46:39.137Z,34.50
2023-04-12T21:51:49.499Z,34.30
2023-04-12T21:56:56.245Z,41.60
2023-04-12T22:02:05.415Z,43.20
2023-04-12T22:07:17.648Z,37.20
2023-04-12T22:12:32.344Z,38.60
2023-04-12T22:17:35.862Z,40.00
2023-04-12T22:22:40.480Z,38.40
2023-04-12T22:28:09.397Z,36.60
2023-04-12T22:33:13.828Z,36.70
2023-04-12T22:38:19.898Z,33.30
2023-04-12T22:43:24.458Z,39.80
2023-04-12T22:48:32.356Z,35.30
2023-04-12T22:53:44.882Z,37.90
2023-04-12T22:58:50.680Z,33.70
2023-04-12T23:03:57.482Z,34.30
2023-04-12T23:09:01.638Z,29.40
2023-04-12T23:14:08.468Z,36.30
2023-04-12T23:19:16.697Z,35.60
2023-04-12T23:24:20.373Z,35.60
2023-04-12T23:29:26.253Z,32.90
2023-04-12T23:34:46.575Z,30.30
2023-04-12T23:40:05.462Z,28.60
2023-04-12T23:45:12.259Z,29.80
2023-04-12T23:50:19.469Z,27.80
2023-04-12T23:55:23.211Z,33.00
